Meteo Giornale » Osservazioni meteo Giappone » Tottori
ore: 02:00 - Osservazioni Meteo Tottori
Lat. 35° 32' N Lon. 134° 10' E Alt. 15 metri s.l.m.
27 °C
Sereno
Temp. 24 Ore
25 °C
32 °C
Sud-Est
13 Km/h
Dew point 24 °C
Umidità 83 %
Visibilità 10 Km
Il sole sorge alle ore 05:35
Il sole tramonta alle ore 18:31
| Data e Ora | Cielo e Fenomeni | T °C | DP °C | Um. % | Pres. hPa | Vis. km | Vento km/h | |
|---|---|---|---|---|---|---|---|---|
| Oggi h: 02:00 | Sereno | 27 | 24 | 83 | 1012 | 10 | SE 13 | |
| Oggi h: 01:00 | Sereno | 26 | 24 | 88 | 1012 | 10 | SE 9.3 | |
| Oggi h: 00:00 | Sereno | 26 | 25 | 94 | 1012 | 10 | E/SE 7.4 | |
| Ieri h: 23:00 | Sereno | 27 | 24 | 83 | 1012 | 10 | S/SE 7.4 | |
| Ieri h: 22:00 | Coperto | 27 | 25 | 88 | 1012 | 10 | N 1.8 | |
| Ieri h: 21:00 | Nuvoloso | 27 | 25 | 88 | 1012 | 10 | N 1.8 | |
| Ieri h: 20:00 | Nuvoloso | 27 | 25 | 88 | 1012 | 10 | S 7.4 | |
| Ieri h: 19:00 | Pioggia | 27 | 26 | 94 | 1011 | 10 | S/SO 7.4 | |
| Ieri h: 18:00 | Pioggia | 28 | 25 | 83 | 1011 | 10 | O/NO 16.7 | |
| Ieri h: 17:00 | Pioggia nelle vicinanze | 30 | 26 | 79 | 1010 | 10 | NE 13 | |
| Ieri h: 16:00 | Nuvoloso | 31 | 26 | 74 | 1009 | 10 | N/NE 11.1 | |
| Ieri h: 15:00 | Poco Nuvoloso | 31 | 27 | 79 | 1009 | 10 | NE 14.8 | |
| Ieri h: 14:00 | Nuvoloso | 32 | 27 | 74 | 1009 | 10 | NE 18.5 | |
| Ieri h: 13:00 | Nuvoloso | 31 | 27 | 79 | 1009 | 10 | NE 14.8 | |
| Ieri h: 12:00 | Nuvoloso | 32 | 27 | 74 | 1010 | 10 | N/NE 14.8 | |
| Ieri h: 11:00 | Poco Nuvoloso | 31 | 27 | 79 | 1010 | 10 | N/NE 16.7 | |
| Ieri h: 10:00 | Poco Nuvoloso | 31 | 26 | 74 | 1010 | 10 | N/NE 16.7 | |
| Ieri h: 09:00 | Nuvoloso | 31 | 25 | 70 | 1010 | 10 | N 3.7 | |
| Ieri h: 08:00 | Poco Nuvoloso | 29 | 24 | 74 | 1010 | 10 | S/SE 11.1 | |
| Ieri h: 07:00 | Poco Nuvoloso | 26 | 24 | 88 | 1010 | 10 | S/SE 11.1 | |
| Ieri h: 06:00 | Sereno | 25 | 24 | 94 | 1010 | 10 | SE 11.1 | |
| Ieri h: 05:00 | Sereno | 25 | 24 | 94 | 1009 | 10 | SE 11.1 | |
| Ieri h: 04:00 | Sereno | 25 | 24 | 94 | 1009 | 10 | SE 7.4 | |



